首页
METAR-TAF:

METAR-TAF

机场 :

Hopkinsville, 肯塔基州, 美国

纬度: 36-40N, 经度: 087-30W, 海拔: 174米

当前天气观测

该预报发布于20分钟前的08:11 UTC
风速4节,风向北转东北
温度 12°C
湿度 62%
气压 1015 hPa
能見度: 16.1公里
散云层高于2200英尺
散云层高于3600英尺
多云层高于5000英尺
小雨

METAR: KHOP 310811Z AUTO 03004KT 10SM -RA SCT022 SCT036 BKN050 12/05 A2998 RMK AO2 DZE07RAB07 SLP153

时间: 03:31 (08:31 UTC)

预报

该预报发布于31分钟前的08:00 UTC
预报有效从31日的 08点(UTC)到 01日的 14点(UTC)
风速6节,风向多变
能見度: 9000
多云层高于2500英尺
多云层高于7000英尺
小阵雨
成为
从 31日的 09点(UTC)到 31日的 10点(UTC)
风速6节,风向多变
能見度: 9000
多云层高于3000英尺
阴天层高于5000英尺
小阵雨
成为
从 31日的 19点(UTC)到 31日的 20点(UTC)
风速12节,风向
能见度10公里或以上
多云层高于3500英尺
成为
从 01日的 05点(UTC)到 01日的 06点(UTC)
风速6节,风向
能见度10公里或以上
多云层高于3000英尺

TAF: KHOP 310800Z 3108/0114 VRB06KT 9000 -SHRA BKN025 BKN070 QNH2998INS BECMG 3109/3110 VRB06KT 9000 -SHRA BKN030 OVC050 QNH2996INS BECMG 3119/3120 36012KT 9999 NSW BKN035 QNH2999INS BECMG 0105/0106 35006KT 9999 BKN030 QNH3001INS TX17/3121Z TN08/0100Z

超过4000个机场的气象观测和天气预报(METAR&TAF报告)。

可查询的气象台以黄色和红色小点在地图上表示。

将鼠标移到小点上方,可查看气象台名称。

然后点击查看天气观测和预报。

如需切换地图:点击带黑十字的绿色按钮放大地图;点击带横线的绿色按钮缩小地图;或者点击绿色箭头查看邻近地区的地图。


METAR-TAF: